sensor_id;sensor_type;location;lat;lon;timestamp;pressure;altitude;pressure_sealevel;temperature;humidity
9474;BME280;8865;47.636;7.692;2023-03-21T00:01:13;98566.16;;;6.56;100.00
9474;BME280;8865;47.636;7.692;2023-03-21T00:03:39;98559.25;;;6.55;100.00
9474;BME280;8865;47.636;7.692;2023-03-21T00:06:10;98560.28;;;6.52;100.00
9474;BME280;8865;47.636;7.692;2023-03-21T00:08:37;98551.13;;;6.47;100.00
9474;BME280;8865;47.636;7.692;2023-03-21T00:11:05;98554.56;;;6.47;100.00
9474;BME280;8865;47.636;7.692;2023-03-21T00:13:33;98554.66;;;6.46;100.00
9474;BME280;8865;47.636;7.692;2023-03-21T00:16:04;98566.09;;;6.43;100.00
9474;BME280;8865;47.636;7.692;2023-03-21T00:18:30;98558.56;;;6.38;100.00
9474;BME280;8865;47.636;7.692;2023-03-21T00:21:02;98561.28;;;6.37;100.00
9474;BME280;8865;47.636;7.692;2023-03-21T00:23:29;98559.53;;;6.37;100.00
9474;BME280;8865;47.636;7.692;2023-03-21T00:25:56;98555.53;;;6.32;100.00
9474;BME280;8865;47.636;7.692;2023-03-21T00:28:22;98552.09;;;6.31;100.00
9474;BME280;8865;47.636;7.692;2023-03-21T00:30:49;98556.75;;;6.26;100.00
9474;BME280;8865;47.636;7.692;2023-03-21T00:33:15;98549.88;;;6.25;100.00
9474;BME280;8865;47.636;7.692;2023-03-21T00:35:45;98543.22;;;6.21;100.00
9474;BME280;8865;47.636;7.692;2023-03-21T00:38:13;98549.34;;;6.20;100.00
9474;BME280;8865;47.636;7.692;2023-03-21T00:40:40;98541.63;;;6.18;100.00
9474;BME280;8865;47.636;7.692;2023-03-21T00:43:06;98548.44;;;6.06;100.00
9474;BME280;8865;47.636;7.692;2023-03-21T00:45:32;98547.09;;;6.01;100.00
9474;BME280;8865;47.636;7.692;2023-03-21T00:47:58;98536.69;;;6.01;100.00
9474;BME280;8865;47.636;7.692;2023-03-21T00:50:24;98531.75;;;5.96;100.00
9474;BME280;8865;47.636;7.692;2023-03-21T00:52:50;98529.13;;;5.96;100.00
9474;BME280;8865;47.636;7.692;2023-03-21T00:55:18;98531.06;;;5.93;100.00
9474;BME280;8865;47.636;7.692;2023-03-21T00:57:44;98526.91;;;5.90;100.00
9474;BME280;8865;47.636;7.692;2023-03-21T01:00:12;98529.53;;;5.90;100.00
9474;BME280;8865;47.636;7.692;2023-03-21T01:02:40;98534.72;;;5.90;100.00
9474;BME280;8865;47.636;7.692;2023-03-21T01:05:28;98527.84;;;5.89;100.00
9474;BME280;8865;47.636;7.692;2023-03-21T01:08:15;98520.03;;;5.89;100.00
9474;BME280;8865;47.636;7.692;2023-03-21T01:10:44;98518.38;;;5.88;100.00
9474;BME280;8865;47.636;7.692;2023-03-21T01:13:12;98521.16;;;5.85;100.00
9474;BME280;8865;47.636;7.692;2023-03-21T01:15:43;98523.94;;;5.82;100.00
9474;BME280;8865;47.636;7.692;2023-03-21T01:18:10;98529.25;;;5.80;100.00
9474;BME280;8865;47.636;7.692;2023-03-21T01:20:36;98519.03;;;5.77;100.00
9474;BME280;8865;47.636;7.692;2023-03-21T01:23:02;98519.88;;;5.78;100.00
9474;BME280;8865;47.636;7.692;2023-03-21T01:25:28;98517.00;;;5.68;100.00
9474;BME280;8865;47.636;7.692;2023-03-21T01:27:54;98511.81;;;5.68;100.00
9474;BME280;8865;47.636;7.692;2023-03-21T01:30:20;98503.09;;;5.69;100.00
9474;BME280;8865;47.636;7.692;2023-03-21T01:32:46;98511.91;;;5.66;100.00
9474;BME280;8865;47.636;7.692;2023-03-21T01:35:12;98512.00;;;5.65;100.00
9474;BME280;8865;47.636;7.692;2023-03-21T01:37:38;98506.81;;;5.65;100.00
9474;BME280;8865;47.636;7.692;2023-03-21T01:40:05;98509.69;;;5.60;100.00
9474;BME280;8865;47.636;7.692;2023-03-21T01:42:31;98504.13;;;5.52;100.00
9474;BME280;8865;47.636;7.692;2023-03-21T01:45:05;98501.00;;;5.47;100.00
9474;BME280;8865;47.636;7.692;2023-03-21T01:47:32;98501.81;;;5.47;100.00
9474;BME280;8865;47.636;7.692;2023-03-21T01:50:01;98499.50;;;5.43;100.00
9474;BME280;8865;47.636;7.692;2023-03-21T01:52:33;98503.59;;;5.47;100.00
9474;BME280;8865;47.636;7.692;2023-03-21T01:55:03;98498.00;;;5.39;100.00
9474;BME280;8865;47.636;7.692;2023-03-21T01:57:37;98497.94;;;5.40;100.00
9474;BME280;8865;47.636;7.692;2023-03-21T02:00:06;98494.78;;;5.35;100.00
9474;BME280;8865;47.636;7.692;2023-03-21T02:02:42;98497.94;;;5.40;100.00
9474;BME280;8865;47.636;7.692;2023-03-21T02:05:20;98493.78;;;5.38;100.00
9474;BME280;8865;47.636;7.692;2023-03-21T02:07:47;98485.97;;;5.38;100.00
9474;BME280;8865;47.636;7.692;2023-03-21T02:10:17;98488.00;;;5.32;100.00
9474;BME280;8865;47.636;7.692;2023-03-21T02:12:44;98485.59;;;5.29;100.00
9474;BME280;8865;47.636;7.692;2023-03-21T02:15:11;98480.59;;;5.26;100.00
9474;BME280;8865;47.636;7.692;2023-03-21T02:17:39;98488.56;;;5.23;100.00
9474;BME280;8865;47.636;7.692;2023-03-21T02:23:14;98486.16;;;5.20;100.00
9474;BME280;8865;47.636;7.692;2023-03-21T02:28:45;98479.56;;;5.14;100.00
9474;BME280;8865;47.636;7.692;2023-03-21T02:31:29;98483.28;;;5.10;100.00
9474;BME280;8865;47.636;7.692;2023-03-21T02:39:40;98477.50;;;5.05;100.00
9474;BME280;8865;47.636;7.692;2023-03-21T02:47:33;98477.88;;;4.99;100.00
9474;BME280;8865;47.636;7.692;2023-03-21T02:52:35;98477.78;;;5.00;100.00
9474;BME280;8865;47.636;7.692;2023-03-21T02:55:04;98477.78;;;5.00;100.00
9474;BME280;8865;47.636;7.692;2023-03-21T02:57:32;98467.69;;;4.96;100.00
9474;BME280;8865;47.636;7.692;2023-03-21T02:59:59;98466.84;;;4.95;100.00
9474;BME280;8865;47.636;7.692;2023-03-21T03:02:27;98466.84;;;4.95;100.00
9474;BME280;8865;47.636;7.692;2023-03-21T03:04:53;98467.03;;;4.92;100.00
9474;BME280;8865;47.636;7.692;2023-03-21T03:10:30;98459.63;;;4.86;100.00
9474;BME280;8865;47.636;7.692;2023-03-21T03:16:27;98457.66;;;4.75;100.00
9474;BME280;8865;47.636;7.692;2023-03-21T03:18:59;98464.66;;;4.59;100.00
9474;BME280;8865;47.636;7.692;2023-03-21T03:22:14;98465.16;;;4.65;100.00
9474;BME280;8865;47.636;7.692;2023-03-21T03:27:19;98458.66;;;4.58;100.00
9474;BME280;8865;47.636;7.692;2023-03-21T03:29:49;98459.28;;;4.62;100.00
9474;BME280;8865;47.636;7.692;2023-03-21T03:32:21;98463.75;;;4.60;100.00
9474;BME280;8865;47.636;7.692;2023-03-21T03:34:53;98461.81;;;4.63;100.00
9474;BME280;8865;47.636;7.692;2023-03-21T03:37:23;98462.75;;;4.62;100.00
9474;BME280;8865;47.636;7.692;2023-03-21T03:40:07;98462.75;;;4.62;100.00
9474;BME280;8865;47.636;7.692;2023-03-21T03:42:48;98458.38;;;4.63;100.00
9474;BME280;8865;47.636;7.692;2023-03-21T03:45:17;98458.56;;;4.60;100.00
9474;BME280;8865;47.636;7.692;2023-03-21T03:50:43;98452.72;;;4.56;100.00
9474;BME280;8865;47.636;7.692;2023-03-21T03:53:19;98458.00;;;4.55;100.00
9474;BME280;8865;47.636;7.692;2023-03-21T03:55:48;98456.41;;;4.52;100.00
9474;BME280;8865;47.636;7.692;2023-03-21T03:58:19;98456.69;;;4.47;100.00
9474;BME280;8865;47.636;7.692;2023-03-21T04:00:45;98456.78;;;4.46;100.00
9474;BME280;8865;47.636;7.692;2023-03-21T04:03:12;98457.34;;;4.51;100.00
9474;BME280;8865;47.636;7.692;2023-03-21T04:05:38;98456.59;;;4.49;100.00
9474;BME280;8865;47.636;7.692;2023-03-21T04:08:04;98456.78;;;4.46;100.00
9474;BME280;8865;47.636;7.692;2023-03-21T04:10:31;98457.69;;;4.45;100.00
9474;BME280;8865;47.636;7.692;2023-03-21T04:12:57;98448.34;;;4.42;100.00
9474;BME280;8865;47.636;7.692;2023-03-21T04:15:23;98454.19;;;4.46;100.00
9474;BME280;8865;47.636;7.692;2023-03-21T04:17:49;98454.34;;;4.43;100.00
9474;BME280;8865;47.636;7.692;2023-03-21T04:20:15;98455.78;;;4.49;100.00
9474;BME280;8865;47.636;7.692;2023-03-21T04:22:41;98454.72;;;4.37;100.00
9474;BME280;8865;47.636;7.692;2023-03-21T04:25:07;98454.44;;;4.41;100.00
9474;BME280;8865;47.636;7.692;2023-03-21T04:27:34;98453.44;;;4.44;100.00
9474;BME280;8865;47.636;7.692;2023-03-21T04:30:00;98452.69;;;4.42;100.00
9474;BME280;8865;47.636;7.692;2023-03-21T04:32:27;98458.72;;;4.42;100.00
9474;BME280;8865;47.636;7.692;2023-03-21T04:34:53;98456.03;;;4.44;100.00
9474;BME280;8865;47.636;7.692;2023-03-21T04:37:20;98455.34;;;4.40;100.00
9474;BME280;8865;47.636;7.692;2023-03-21T04:39:49;98454.53;;;4.40;100.00
9474;BME280;8865;47.636;7.692;2023-03-21T04:42:17;98451.03;;;4.41;100.00
9474;BME280;8865;47.636;7.692;2023-03-21T04:44:46;98451.22;;;4.38;100.00
9474;BME280;8865;47.636;7.692;2023-03-21T04:47:13;98452.69;;;4.42;100.00
9474;BME280;8865;47.636;7.692;2023-03-21T04:49:42;98446.56;;;4.43;100.00
9474;BME280;8865;47.636;7.692;2023-03-21T04:52:08;98451.28;;;4.36;100.00
9474;BME280;8865;47.636;7.692;2023-03-21T04:54:34;98443.25;;;4.41;100.00
9474;BME280;8865;47.636;7.692;2023-03-21T04:57:00;98440.06;;;4.36;100.00
9474;BME280;8865;47.636;7.692;2023-03-21T04:59:26;98440.25;;;4.33;100.00
9474;BME280;8865;47.636;7.692;2023-03-21T05:01:52;98438.00;;;4.26;100.00
9474;BME280;8865;47.636;7.692;2023-03-21T05:04:18;98444.88;;;4.27;100.00
9474;BME280;8865;47.636;7.692;2023-03-21T05:06:45;98442.09;;;4.31;100.00
9474;BME280;8865;47.636;7.692;2023-03-21T05:09:11;98443.00;;;4.29;100.00
9474;BME280;8865;47.636;7.692;2023-03-21T05:11:39;98439.50;;;4.31;100.00
9474;BME280;8865;47.636;7.692;2023-03-21T05:14:11;98436.19;;;4.28;100.00
9474;BME280;8865;47.636;7.692;2023-03-21T05:16:41;98438.78;;;4.28;100.00
9474;BME280;8865;47.636;7.692;2023-03-21T05:19:14;98439.69;;;4.27;100.00
9474;BME280;8865;47.636;7.692;2023-03-21T05:21:40;98439.88;;;4.24;100.00
9474;BME280;8865;47.636;7.692;2023-03-21T05:24:13;98438.34;;;4.20;100.00
9474;BME280;8865;47.636;7.692;2023-03-21T05:26:40;98433.16;;;4.20;100.00
9474;BME280;8865;47.636;7.692;2023-03-21T05:29:07;98440.78;;;4.23;100.00
9474;BME280;8865;47.636;7.692;2023-03-21T05:31:33;98440.41;;;4.29;100.00
9474;BME280;8865;47.636;7.692;2023-03-21T05:33:59;98442.00;;;4.32;100.00
9474;BME280;8865;47.636;7.692;2023-03-21T05:36:25;98437.91;;;4.28;100.00
9474;BME280;8865;47.636;7.692;2023-03-21T05:38:51;98438.78;;;4.28;100.00
9474;BME280;8865;47.636;7.692;2023-03-21T05:41:17;98438.94;;;4.25;100.00
9474;BME280;8865;47.636;7.692;2023-03-21T05:43:43;98443.97;;;4.28;100.00
9474;BME280;8865;47.636;7.692;2023-03-21T05:46:10;98445.34;;;4.34;100.00
9474;BME280;8865;47.636;7.692;2023-03-21T05:48:36;98442.66;;;4.36;100.00
9474;BME280;8865;47.636;7.692;2023-03-21T05:51:03;98438.41;;;4.35;100.00
9474;BME280;8865;47.636;7.692;2023-03-21T05:53:29;98438.16;;;4.39;100.00
9474;BME280;8865;47.636;7.692;2023-03-21T05:55:55;98440.22;;;4.49;100.00
9474;BME280;8865;47.636;7.692;2023-03-21T05:58:21;98440.94;;;4.51;100.00
9474;BME280;8865;47.636;7.692;2023-03-21T06:00:48;98438.72;;;4.59;100.00
9474;BME280;8865;47.636;7.692;2023-03-21T06:03:14;98439.75;;;4.56;100.00
9474;BME280;8865;47.636;7.692;2023-03-21T06:05:40;98429.47;;;4.69;100.00
9474;BME280;8865;47.636;7.692;2023-03-21T06:08:06;98430.97;;;4.73;100.00
9474;BME280;8865;47.636;7.692;2023-03-21T06:10:32;98434.59;;;4.85;100.00
9474;BME280;8865;47.636;7.692;2023-03-21T06:12:58;98431.72;;;4.90;100.00
9474;BME280;8865;47.636;7.692;2023-03-21T06:15:24;98434.78;;;4.96;100.00
9474;BME280;8865;47.636;7.692;2023-03-21T06:17:51;98427.09;;;5.09;100.00
9474;BME280;8865;47.636;7.692;2023-03-21T06:20:17;98427.91;;;5.24;100.00
9474;BME280;8865;47.636;7.692;2023-03-21T06:22:43;98427.97;;;5.37;100.00
9474;BME280;8865;47.636;7.692;2023-03-21T06:25:09;98419.53;;;5.48;100.00
9474;BME280;8865;47.636;7.692;2023-03-21T06:27:36;98419.91;;;5.56;100.00
9474;BME280;8865;47.636;7.692;2023-03-21T06:30:03;98414.56;;;5.72;100.00
9474;BME280;8865;47.636;7.692;2023-03-21T06:32:30;98412.28;;;5.80;100.00
9474;BME280;8865;47.636;7.692;2023-03-21T06:34:56;98410.13;;;5.87;100.00
9474;BME280;8865;47.636;7.692;2023-03-21T06:37:22;98404.28;;;5.98;100.00
9474;BME280;8865;47.636;7.692;2023-03-21T06:39:48;98403.69;;;6.20;100.00
9474;BME280;8865;47.636;7.692;2023-03-21T06:42:14;98403.63;;;6.34;100.00
9474;BME280;8865;47.636;7.692;2023-03-21T06:44:40;98399.56;;;6.43;100.00
9474;BME280;8865;47.636;7.692;2023-03-21T06:47:06;98403.53;;;6.61;100.00
9474;BME280;8865;47.636;7.692;2023-03-21T06:49:33;98403.13;;;6.81;100.00
9474;BME280;8865;47.636;7.692;2023-03-21T06:51:59;98407.41;;;6.94;100.00
9474;BME280;8865;47.636;7.692;2023-03-21T06:54:25;98402.78;;;7.11;100.00
9474;BME280;8865;47.636;7.692;2023-03-21T06:56:51;98402.22;;;7.31;100.00
9474;BME280;8865;47.636;7.692;2023-03-21T06:59:18;98403.41;;;7.51;100.00
9474;BME280;8865;47.636;7.692;2023-03-21T07:01:45;98398.56;;;7.71;100.00
9474;BME280;8865;47.636;7.692;2023-03-21T07:04:11;98393.88;;;7.87;100.00
9474;BME280;8865;47.636;7.692;2023-03-21T07:06:37;98389.91;;;8.06;100.00
9474;BME280;8865;47.636;7.692;2023-03-21T07:09:04;98386.06;;;8.23;100.00
9474;BME280;8865;47.636;7.692;2023-03-21T07:11:30;98384.59;;;8.43;100.00
9474;BME280;8865;47.636;7.692;2023-03-21T07:13:56;98383.22;;;8.62;100.00
9474;BME280;8865;47.636;7.692;2023-03-21T07:16:23;98377.53;;;8.79;100.00
9474;BME280;8865;47.636;7.692;2023-03-21T07:18:50;98372.69;;;8.97;100.00
9474;BME280;8865;47.636;7.692;2023-03-21T07:21:16;98369.47;;;9.05;100.00
9474;BME280;8865;47.636;7.692;2023-03-21T07:23:43;98363.88;;;9.21;100.00
9474;BME280;8865;47.636;7.692;2023-03-21T07:26:09;98365.97;;;9.38;100.00
9474;BME280;8865;47.636;7.692;2023-03-21T07:28:35;98362.28;;;9.52;100.00
9474;BME280;8865;47.636;7.692;2023-03-21T07:31:05;98362.69;;;9.69;100.00
9474;BME280;8865;47.636;7.692;2023-03-21T07:33:32;98363.97;;;9.74;100.00
9474;BME280;8865;47.636;7.692;2023-03-21T07:35:59;98353.69;;;9.94;100.00
9474;BME280;8865;47.636;7.692;2023-03-21T07:38:25;98361.09;;;10.10;100.00
9474;BME280;8865;47.636;7.692;2023-03-21T07:40:52;98355.34;;;10.16;100.00
9474;BME280;8865;47.636;7.692;2023-03-21T07:43:18;98353.78;;;10.25;100.00
9474;BME280;8865;47.636;7.692;2023-03-21T07:45:45;98356.81;;;10.30;100.00
9474;BME280;8865;47.636;7.692;2023-03-21T07:48:12;98360.13;;;10.43;100.00
9474;BME280;8865;47.636;7.692;2023-03-21T07:50:39;98361.97;;;10.52;100.00
9474;BME280;8865;47.636;7.692;2023-03-21T07:53:04;98361.56;;;10.57;100.00
9474;BME280;8865;47.636;7.692;2023-03-21T07:55:30;98361.94;;;10.74;100.00
9474;BME280;8865;47.636;7.692;2023-03-21T07:58:03;98357.47;;;10.95;100.00
9474;BME280;8865;47.636;7.692;2023-03-21T08:00:29;98359.47;;;11.13;100.00
9474;BME280;8865;47.636;7.692;2023-03-21T08:02:56;98355.91;;;11.33;100.00
9474;BME280;8865;47.636;7.692;2023-03-21T08:05:24;98361.06;;;11.44;100.00
9474;BME280;8865;47.636;7.692;2023-03-21T08:07:50;98365.38;;;11.65;100.00
9474;BME280;8865;47.636;7.692;2023-03-21T08:10:17;98370.78;;;11.83;100.00
9474;BME280;8865;47.636;7.692;2023-03-21T08:12:44;98363.63;;;11.95;100.00
9474;BME280;8865;47.636;7.692;2023-03-21T08:15:11;98368.19;;;12.12;100.00
9474;BME280;8865;47.636;7.692;2023-03-21T08:17:39;98370.94;;;12.30;100.00
9474;BME280;8865;47.636;7.692;2023-03-21T08:20:07;98365.38;;;12.43;100.00
9474;BME280;8865;47.636;7.692;2023-03-21T08:22:34;98367.97;;;12.63;100.00
9474;BME280;8865;47.636;7.692;2023-03-21T08:25:05;98364.84;;;12.77;100.00
9474;BME280;8865;47.636;7.692;2023-03-21T08:27:33;98359.97;;;12.92;100.00
9474;BME280;8865;47.636;7.692;2023-03-21T08:30:00;98369.72;;;13.10;100.00
9474;BME280;8865;47.636;7.692;2023-03-21T08:32:26;98359.25;;;13.28;100.00
9474;BME280;8865;47.636;7.692;2023-03-21T08:35:00;98361.41;;;13.42;100.00
9474;BME280;8865;47.636;7.692;2023-03-21T08:37:27;98360.31;;;13.63;100.00
9474;BME280;8865;47.636;7.692;2023-03-21T08:39:53;98359.03;;;13.85;100.00
9474;BME280;8865;47.636;7.692;2023-03-21T08:42:20;98359.66;;;13.97;100.00
9474;BME280;8865;47.636;7.692;2023-03-21T08:44:46;98362.28;;;14.15;100.00
9474;BME280;8865;47.636;7.692;2023-03-21T08:47:13;98349.34;;;14.29;100.00
9474;BME280;8865;47.636;7.692;2023-03-21T08:49:39;98356.56;;;14.45;100.00
9474;BME280;8865;47.636;7.692;2023-03-21T08:52:06;98355.31;;;14.58;100.00
9474;BME280;8865;47.636;7.692;2023-03-21T08:54:33;98362.22;;;14.77;100.00
9474;BME280;8865;47.636;7.692;2023-03-21T08:56:59;98354.75;;;14.98;100.00
9474;BME280;8865;47.636;7.692;2023-03-21T08:59:25;98352.97;;;15.07;100.00
9474;BME280;8865;47.636;7.692;2023-03-21T09:01:51;98344.13;;;15.25;100.00
9474;BME280;8865;47.636;7.692;2023-03-21T09:04:17;98339.06;;;15.40;100.00
9474;BME280;8865;47.636;7.692;2023-03-21T09:06:45;98342.88;;;15.45;100.00
9474;BME280;8865;47.636;7.692;2023-03-21T09:09:15;98339.75;;;15.58;100.00
9474;BME280;8865;47.636;7.692;2023-03-21T09:11:41;98340.44;;;15.77;100.00
9474;BME280;8865;47.636;7.692;2023-03-21T09:14:07;98340.00;;;15.98;100.00
9474;BME280;8865;47.636;7.692;2023-03-21T09:16:34;98335.03;;;16.19;100.00
9474;BME280;8865;47.636;7.692;2023-03-21T09:19:00;98334.53;;;16.40;98.31
9474;BME280;8865;47.636;7.692;2023-03-21T09:21:28;98329.97;;;16.74;96.39
9474;BME280;8865;47.636;7.692;2023-03-21T09:23:54;98329.50;;;16.87;86.04
9474;BME280;8865;47.636;7.692;2023-03-21T09:26:24;98334.28;;;17.23;90.96
9474;BME280;8865;47.636;7.692;2023-03-21T09:28:51;98334.75;;;17.58;83.03
9474;BME280;8865;47.636;7.692;2023-03-21T09:31:18;98337.34;;;17.97;86.38
9474;BME280;8865;47.636;7.692;2023-03-21T09:33:48;98331.63;;;18.62;78.52
9474;BME280;8865;47.636;7.692;2023-03-21T09:36:15;98333.41;;;19.72;78.47
9474;BME280;8865;47.636;7.692;2023-03-21T09:38:44;98325.66;;;21.19;66.04
9474;BME280;8865;47.636;7.692;2023-03-21T09:46:23;98324.53;;;24.18;45.35
9474;BME280;8865;47.636;7.692;2023-03-21T09:48:58;98314.97;;;25.09;41.71
9474;BME280;8865;47.636;7.692;2023-03-21T09:51:33;98320.16;;;26.14;39.20
9474;BME280;8865;47.636;7.692;2023-03-21T09:54:15;98314.72;;;25.90;37.88
9474;BME280;8865;47.636;7.692;2023-03-21T09:56:43;98314.66;;;25.66;39.00
9474;BME280;8865;47.636;7.692;2023-03-21T09:59:20;98316.91;;;25.81;39.13
9474;BME280;8865;47.636;7.692;2023-03-21T10:01:49;98312.00;;;26.44;37.34
9474;BME280;8865;47.636;7.692;2023-03-21T10:04:16;98317.75;;;27.12;36.12
9474;BME280;8865;47.636;7.692;2023-03-21T10:06:53;98321.34;;;27.41;34.14
9474;BME280;8865;47.636;7.692;2023-03-21T10:09:21;98317.47;;;27.37;34.42
9474;BME280;8865;47.636;7.692;2023-03-21T10:12:10;98315.19;;;27.75;35.26
9474;BME280;8865;47.636;7.692;2023-03-21T10:14:42;98321.03;;;28.01;33.13
9474;BME280;8865;47.636;7.692;2023-03-21T10:17:37;98313.69;;;28.30;31.13
9474;BME280;8865;47.636;7.692;2023-03-21T10:22:45;98309.06;;;30.45;29.62
9474;BME280;8865;47.636;7.692;2023-03-21T10:25:16;98303.91;;;30.96;28.49
9474;BME280;8865;47.636;7.692;2023-03-21T10:27:44;98305.06;;;31.16;29.04
9474;BME280;8865;47.636;7.692;2023-03-21T10:30:25;98301.44;;;31.68;26.32
9474;BME280;8865;47.636;7.692;2023-03-21T10:32:54;98293.59;;;31.72;25.90
9474;BME280;8865;47.636;7.692;2023-03-21T10:35:21;98305.50;;;31.66;25.52
9474;BME280;8865;47.636;7.692;2023-03-21T10:37:47;98293.03;;;31.80;25.71
9474;BME280;8865;47.636;7.692;2023-03-21T10:40:15;98297.00;;;31.21;25.51
9474;BME280;8865;47.636;7.692;2023-03-21T10:42:42;98280.84;;;31.67;24.49
9474;BME280;8865;47.636;7.692;2023-03-21T10:45:18;98287.06;;;32.30;24.79
9474;BME280;8865;47.636;7.692;2023-03-21T10:47:48;98277.59;;;33.13;24.11
9474;BME280;8865;47.636;7.692;2023-03-21T10:50:18;98270.03;;;33.55;23.15
9474;BME280;8865;47.636;7.692;2023-03-21T10:52:55;98276.78;;;33.57;22.55
9474;BME280;8865;47.636;7.692;2023-03-21T10:55:29;98267.22;;;33.65;21.86
9474;BME280;8865;47.636;7.692;2023-03-21T10:58:07;98265.75;;;33.43;21.55
9474;BME280;8865;47.636;7.692;2023-03-21T11:00:40;98259.56;;;33.33;22.52
9474;BME280;8865;47.636;7.692;2023-03-21T11:03:21;98257.69;;;33.33;22.08
9474;BME280;8865;47.636;7.692;2023-03-21T11:05:52;98259.84;;;32.81;22.41
9474;BME280;8865;47.636;7.692;2023-03-21T11:08:21;98254.94;;;32.88;22.05
9474;BME280;8865;47.636;7.692;2023-03-21T11:13:23;98252.13;;;32.13;22.60
9474;BME280;8865;47.636;7.692;2023-03-21T11:15:53;98246.66;;;31.20;22.20
9474;BME280;8865;47.636;7.692;2023-03-21T11:18:22;98252.22;;;29.65;24.06
9474;BME280;8865;47.636;7.692;2023-03-21T11:20:58;98253.78;;;29.28;25.76
9474;BME280;8865;47.636;7.692;2023-03-21T11:23:29;98253.22;;;27.70;26.03
9474;BME280;8865;47.636;7.692;2023-03-21T11:25:58;98246.63;;;28.50;26.54
9474;BME280;8865;47.636;7.692;2023-03-21T11:28:32;98244.28;;;28.98;25.42
9474;BME280;8865;47.636;7.692;2023-03-21T11:31:00;98241.47;;;29.70;25.29
9474;BME280;8865;47.636;7.692;2023-03-21T11:33:32;98244.44;;;30.01;24.42
9474;BME280;8865;47.636;7.692;2023-03-21T11:38:51;98234.66;;;30.90;23.83
9474;BME280;8865;47.636;7.692;2023-03-21T11:41:39;98236.94;;;29.43;23.71
9474;BME280;8865;47.636;7.692;2023-03-21T11:44:05;98238.78;;;29.43;23.86
9474;BME280;8865;47.636;7.692;2023-03-21T11:46:31;98237.41;;;26.34;27.64
9474;BME280;8865;47.636;7.692;2023-03-21T11:48:58;98226.00;;;28.00;26.60
9474;BME280;8865;47.636;7.692;2023-03-21T11:51:36;98225.22;;;28.61;26.11
9474;BME280;8865;47.636;7.692;2023-03-21T11:54:16;98224.84;;;27.96;26.48
9474;BME280;8865;47.636;7.692;2023-03-21T11:56:46;98215.06;;;28.29;25.74
9474;BME280;8865;47.636;7.692;2023-03-21T11:59:17;98224.56;;;28.14;25.97
9474;BME280;8865;47.636;7.692;2023-03-21T12:01:56;98222.66;;;26.72;26.23
9474;BME280;8865;47.636;7.692;2023-03-21T12:07:25;98210.91;;;25.06;29.58
9474;BME280;8865;47.636;7.692;2023-03-21T12:24:42;98183.41;;;24.99;30.96
9474;BME280;8865;47.636;7.692;2023-03-21T12:29:53;98177.97;;;25.95;29.25
9474;BME280;8865;47.636;7.692;2023-03-21T12:32:57;98175.81;;;26.97;28.33
9474;BME280;8865;47.636;7.692;2023-03-21T12:35:33;98175.75;;;27.09;28.45
9474;BME280;8865;47.636;7.692;2023-03-21T12:46:10;98163.16;;;27.94;27.73
9474;BME280;8865;47.636;7.692;2023-03-21T12:48:56;98169.56;;;27.08;28.05
9474;BME280;8865;47.636;7.692;2023-03-21T12:51:32;98161.00;;;27.40;28.47
9474;BME280;8865;47.636;7.692;2023-03-21T12:59:24;98151.00;;;27.24;27.99
9474;BME280;8865;47.636;7.692;2023-03-21T13:01:55;98152.88;;;25.66;29.86
9474;BME280;8865;47.636;7.692;2023-03-21T13:07:05;98146.41;;;29.63;26.13
9474;BME280;8865;47.636;7.692;2023-03-21T13:09:38;98139.41;;;30.62;24.54
9474;BME280;8865;47.636;7.692;2023-03-21T13:12:23;98138.13;;;31.89;23.41
9474;BME280;8865;47.636;7.692;2023-03-21T13:14:58;98137.09;;;32.50;22.62
9474;BME280;8865;47.636;7.692;2023-03-21T13:17:33;98126.50;;;31.47;23.45
9474;BME280;8865;47.636;7.692;2023-03-21T13:23:00;98122.72;;;31.32;25.08
9474;BME280;8865;47.636;7.692;2023-03-21T13:25:29;98126.06;;;32.31;23.69
9474;BME280;8865;47.636;7.692;2023-03-21T13:28:03;98120.75;;;31.90;23.71
9474;BME280;8865;47.636;7.692;2023-03-21T13:30:31;98118.34;;;30.85;24.07
9474;BME280;8865;47.636;7.692;2023-03-21T13:35:37;98107.16;;;28.85;26.31
9474;BME280;8865;47.636;7.692;2023-03-21T13:38:12;98104.41;;;27.91;27.80
9474;BME280;8865;47.636;7.692;2023-03-21T13:40:49;98098.91;;;28.20;27.34
9474;BME280;8865;47.636;7.692;2023-03-21T13:46:07;98089.88;;;28.09;26.84
9474;BME280;8865;47.636;7.692;2023-03-21T13:59:43;98096.72;;;28.44;26.95
9474;BME280;8865;47.636;7.692;2023-03-21T14:04:39;98099.63;;;29.19;27.39
9474;BME280;8865;47.636;7.692;2023-03-21T14:07:20;98102.22;;;29.74;26.37
9474;BME280;8865;47.636;7.692;2023-03-21T14:09:59;98100.47;;;29.52;26.49
9474;BME280;8865;47.636;7.692;2023-03-21T14:12:29;98091.13;;;30.28;26.47
9474;BME280;8865;47.636;7.692;2023-03-21T14:17:55;98091.88;;;30.97;25.79
9474;BME280;8865;47.636;7.692;2023-03-21T14:20:28;98097.72;;;30.48;25.70
9474;BME280;8865;47.636;7.692;2023-03-21T14:22:55;98095.47;;;30.24;26.50
9474;BME280;8865;47.636;7.692;2023-03-21T14:25:23;98094.38;;;29.78;26.59
9474;BME280;8865;47.636;7.692;2023-03-21T14:27:54;98092.22;;;28.50;28.15
9474;BME280;8865;47.636;7.692;2023-03-21T14:30:27;98090.13;;;27.52;29.81
9474;BME280;8865;47.636;7.692;2023-03-21T14:33:02;98092.28;;;26.29;31.67
9474;BME280;8865;47.636;7.692;2023-03-21T14:35:30;98093.97;;;25.24;32.56
9474;BME280;8865;47.636;7.692;2023-03-21T14:38:03;98087.31;;;24.42;33.71
9474;BME280;8865;47.636;7.692;2023-03-21T14:40:30;98094.72;;;23.66;34.57
9474;BME280;8865;47.636;7.692;2023-03-21T14:42:56;98090.09;;;23.29;36.63
9474;BME280;8865;47.636;7.692;2023-03-21T14:45:27;98092.16;;;22.63;37.09
9474;BME280;8865;47.636;7.692;2023-03-21T14:48:03;98090.75;;;22.09;38.59
9474;BME280;8865;47.636;7.692;2023-03-21T14:50:54;98086.56;;;21.61;40.05
9474;BME280;8865;47.636;7.692;2023-03-21T14:53:30;98088.81;;;21.31;41.61
9474;BME280;8865;47.636;7.692;2023-03-21T14:56:19;98089.22;;;21.14;42.56
9474;BME280;8865;47.636;7.692;2023-03-21T14:58:47;98084.38;;;20.49;42.66
9474;BME280;8865;47.636;7.692;2023-03-21T15:01:31;98080.31;;;19.70;44.51
9474;BME280;8865;47.636;7.692;2023-03-21T15:04:00;98080.25;;;19.92;43.95
9474;BME280;8865;47.636;7.692;2023-03-21T15:06:29;98075.72;;;19.51;47.28
9474;BME280;8865;47.636;7.692;2023-03-21T15:09:02;98069.94;;;19.47;48.33
9474;BME280;8865;47.636;7.692;2023-03-21T15:11:38;98071.03;;;19.59;49.00
9474;BME280;8865;47.636;7.692;2023-03-21T15:14:10;98074.19;;;19.70;52.64
9474;BME280;8865;47.636;7.692;2023-03-21T15:16:38;98074.88;;;19.78;52.14
9474;BME280;8865;47.636;7.692;2023-03-21T15:19:04;98070.41;;;19.86;53.79